createdAt,value
2023-05-05T00:00:46.414Z,41.53
2023-05-05T00:01:46.535Z,41.69
2023-05-05T00:02:46.585Z,41.80
2023-05-05T00:03:46.612Z,41.81
2023-05-05T00:04:46.635Z,41.84
2023-05-05T00:05:46.687Z,41.86
2023-05-05T00:06:46.734Z,41.85
2023-05-05T00:07:46.779Z,41.95
2023-05-05T00:08:46.777Z,42.05
2023-05-05T00:09:46.811Z,42.08
2023-05-05T00:10:46.872Z,42.10
2023-05-05T00:11:46.922Z,42.27
2023-05-05T00:12:46.980Z,42.36
2023-05-05T00:13:47.008Z,42.57
2023-05-05T00:14:47.066Z,42.86
2023-05-05T00:15:47.146Z,42.96
2023-05-05T00:16:47.250Z,43.07
2023-05-05T00:17:47.252Z,43.02
2023-05-05T00:18:47.257Z,43.08
2023-05-05T00:19:47.302Z,43.06
2023-05-05T00:20:47.563Z,43.26
2023-05-05T00:21:47.332Z,43.27
2023-05-05T00:22:47.315Z,43.27
2023-05-05T00:23:47.328Z,43.47
2023-05-05T00:24:47.332Z,43.48
2023-05-05T00:25:47.349Z,43.49
2023-05-05T00:26:47.343Z,43.55
2023-05-05T00:27:47.372Z,43.65
2023-05-05T00:28:47.390Z,43.44
2023-05-05T00:29:47.404Z,43.44
2023-05-05T00:30:47.481Z,43.26
2023-05-05T00:31:47.415Z,43.28
2023-05-05T00:32:47.464Z,43.21
2023-05-05T00:33:47.474Z,43.19
2023-05-05T00:34:47.501Z,43.27
2023-05-05T00:35:47.503Z,43.42
2023-05-05T00:36:47.523Z,43.19
2023-05-05T00:37:47.527Z,43.35
2023-05-05T00:38:47.564Z,43.46
2023-05-05T00:39:47.578Z,43.56
2023-05-05T00:40:47.606Z,43.77
2023-05-05T00:41:47.616Z,43.81
2023-05-05T00:42:47.641Z,43.79
2023-05-05T00:43:47.639Z,43.92
2023-05-05T00:44:47.659Z,43.90
2023-05-05T00:45:47.791Z,43.86
2023-05-05T00:46:47.741Z,43.92
2023-05-05T00:47:47.724Z,43.84
2023-05-05T00:48:47.729Z,43.92
2023-05-05T00:49:47.747Z,43.85
2023-05-05T00:50:47.782Z,43.88
2023-05-05T00:51:47.765Z,43.83
2023-05-05T00:52:47.779Z,43.84
2023-05-05T00:53:47.810Z,43.93
2023-05-05T00:54:47.824Z,43.94
2023-05-05T00:55:47.839Z,43.87
2023-05-05T00:56:47.868Z,44.08
2023-05-05T00:57:47.869Z,44.09
2023-05-05T00:58:47.892Z,44.04
2023-05-05T00:59:47.925Z,44.16
2023-05-05T01:00:47.943Z,44.04
2023-05-05T01:01:48.022Z,44.21
2023-05-05T01:02:48.050Z,44.43
2023-05-05T01:03:48.072Z,44.75
2023-05-05T01:04:48.000Z,44.67
2023-05-05T01:05:48.018Z,44.76
2023-05-05T01:06:48.033Z,44.94
2023-05-05T01:07:48.065Z,45.02
2023-05-05T01:08:48.057Z,44.99
2023-05-05T01:09:48.083Z,44.56
2023-05-05T01:10:48.107Z,44.46
2023-05-05T01:11:48.123Z,44.49
2023-05-05T01:12:48.191Z,44.55
2023-05-05T01:13:48.176Z,44.52
2023-05-05T01:14:48.187Z,44.33
2023-05-05T01:15:48.253Z,44.40
2023-05-05T01:16:48.241Z,44.11
2023-05-05T01:17:48.277Z,44.01
2023-05-05T01:18:48.252Z,44.07
2023-05-05T01:19:48.283Z,44.08
2023-05-05T01:20:48.302Z,43.93
2023-05-05T01:21:48.304Z,43.85
2023-05-05T01:22:48.346Z,43.77
2023-05-05T01:23:48.359Z,44.00
2023-05-05T01:24:48.379Z,44.06
2023-05-05T01:25:48.377Z,44.30
2023-05-05T01:26:48.386Z,44.16
2023-05-05T01:27:48.430Z,44.27
2023-05-05T01:28:48.441Z,44.29
2023-05-05T01:29:48.465Z,44.50
2023-05-05T01:30:48.459Z,44.38
2023-05-05T01:31:48.518Z,44.38
2023-05-05T01:32:48.586Z,44.47
2023-05-05T01:33:48.528Z,44.55
2023-05-05T01:34:48.558Z,44.57
2023-05-05T01:35:48.567Z,44.64
2023-05-05T01:36:48.565Z,44.98
2023-05-05T01:37:48.585Z,45.14
2023-05-05T01:38:48.605Z,45.00
2023-05-05T01:39:48.598Z,45.07
2023-05-05T01:40:48.596Z,44.94
2023-05-05T01:41:48.627Z,44.92
2023-05-05T01:42:48.611Z,44.88
2023-05-05T01:43:48.659Z,44.91
2023-05-05T01:44:48.647Z,45.04
2023-05-05T01:45:48.718Z,45.13
2023-05-05T01:46:48.680Z,45.30
2023-05-05T01:47:48.787Z,45.19
2023-05-05T01:48:48.715Z,45.28
2023-05-05T01:49:48.727Z,45.50
2023-05-05T01:50:48.736Z,45.59
2023-05-05T01:51:48.734Z,45.79
2023-05-05T01:52:48.756Z,45.81
2023-05-05T01:53:48.753Z,45.94
2023-05-05T01:54:48.770Z,45.95
2023-05-05T01:55:48.806Z,45.85
2023-05-05T01:56:48.795Z,45.86
2023-05-05T01:57:48.814Z,45.85
2023-05-05T01:58:48.846Z,45.96
2023-05-05T01:59:48.847Z,46.13
2023-05-05T02:00:48.846Z,46.17
2023-05-05T02:01:48.888Z,45.80
2023-05-05T02:02:48.962Z,46.04
2023-05-05T02:03:48.897Z,46.03
2023-05-05T02:04:48.922Z,45.87
2023-05-05T02:05:48.951Z,45.94
2023-05-05T02:06:48.949Z,45.94
2023-05-05T02:07:48.998Z,45.99
2023-05-05T02:08:49.011Z,45.98
2023-05-05T02:09:49.053Z,45.97
2023-05-05T02:10:49.053Z,46.21
2023-05-05T02:11:49.068Z,46.09
2023-05-05T02:12:49.130Z,46.12
2023-05-05T02:13:49.220Z,46.19
2023-05-05T02:14:49.145Z,46.27
2023-05-05T02:15:49.219Z,46.12
2023-05-05T02:16:49.196Z,46.25
2023-05-05T02:17:49.263Z,46.23
2023-05-05T02:18:49.258Z,46.38
2023-05-05T02:19:49.299Z,46.28
2023-05-05T02:20:49.340Z,45.97
2023-05-05T02:21:49.343Z,45.97
2023-05-05T02:22:49.394Z,45.85
2023-05-05T02:23:49.425Z,45.67
2023-05-05T02:24:49.460Z,45.28
2023-05-05T02:25:49.476Z,45.29
2023-05-05T02:26:49.506Z,45.59
2023-05-05T02:27:49.532Z,45.66
2023-05-05T02:28:49.580Z,45.51
2023-05-05T02:29:49.601Z,45.54
2023-05-05T02:30:49.638Z,45.65
2023-05-05T02:31:49.683Z,45.83
2023-05-05T02:32:49.747Z,46.02
2023-05-05T02:33:49.704Z,46.15
2023-05-05T02:34:49.729Z,45.88
2023-05-05T02:35:49.729Z,46.05
2023-05-05T02:36:49.738Z,46.13
2023-05-05T02:37:49.795Z,45.92
2023-05-05T02:38:49.827Z,45.81
2023-05-05T02:39:49.871Z,45.80
2023-05-05T02:40:49.912Z,45.73
2023-05-05T02:41:49.938Z,45.59
2023-05-05T02:42:50.010Z,45.66
2023-05-05T02:43:50.021Z,45.61
2023-05-05T02:44:50.063Z,45.58
2023-05-05T02:45:50.105Z,45.70
2023-05-05T02:46:50.156Z,45.77
2023-05-05T02:47:50.185Z,45.88
2023-05-05T02:48:50.213Z,45.99
2023-05-05T02:49:50.248Z,45.96
2023-05-05T02:50:50.308Z,46.18
2023-05-05T02:51:50.330Z,46.22
2023-05-05T02:52:50.392Z,46.37
2023-05-05T02:53:50.467Z,46.44
2023-05-05T02:54:50.508Z,46.46
2023-05-05T02:55:50.582Z,46.60
2023-05-05T02:56:50.644Z,46.69
2023-05-05T02:57:50.708Z,46.61
2023-05-05T02:58:50.755Z,46.75
2023-05-05T02:59:50.781Z,46.90
2023-05-05T03:00:50.783Z,46.95
2023-05-05T03:01:50.890Z,47.10
2023-05-05T03:02:50.907Z,47.29
2023-05-05T03:03:50.935Z,47.28
2023-05-05T03:04:50.852Z,47.04
2023-05-05T03:05:50.839Z,47.00
2023-05-05T03:06:50.863Z,46.87
2023-05-05T03:07:50.874Z,46.59
2023-05-05T03:08:50.916Z,46.53
2023-05-05T03:09:50.928Z,46.44
2023-05-05T03:10:50.951Z,46.37
2023-05-05T03:11:51.023Z,46.24
2023-05-05T03:12:51.064Z,45.83
2023-05-05T03:13:51.126Z,45.83
2023-05-05T03:14:51.171Z,45.69
2023-05-05T03:15:51.262Z,45.41
2023-05-05T03:16:51.346Z,45.41
2023-05-05T03:17:51.380Z,45.84
2023-05-05T03:18:51.404Z,45.86
2023-05-05T03:19:51.472Z,46.18
2023-05-05T03:20:51.503Z,46.28
2023-05-05T03:21:51.547Z,46.43
2023-05-05T03:22:51.599Z,46.40
2023-05-05T03:23:51.665Z,46.44
2023-05-05T03:24:51.723Z,46.63
2023-05-05T03:25:51.779Z,46.69
2023-05-05T03:26:51.866Z,46.84
2023-05-05T03:27:51.986Z,46.90
2023-05-05T03:28:51.939Z,47.09
2023-05-05T03:29:51.992Z,47.06
2023-05-05T03:30:52.030Z,47.04
2023-05-05T03:31:52.112Z,47.15
2023-05-05T03:32:52.211Z,47.19
2023-05-05T03:33:52.203Z,47.10
2023-05-05T03:34:52.263Z,47.12
2023-05-05T03:35:52.316Z,47.24
2023-05-05T03:36:52.383Z,47.50
2023-05-05T03:37:52.436Z,47.68
2023-05-05T03:38:52.506Z,47.64
2023-05-05T03:39:52.574Z,47.50
2023-05-05T03:40:52.614Z,47.33
2023-05-05T03:41:52.694Z,47.50
2023-05-05T03:42:52.785Z,47.58
2023-05-05T03:43:52.840Z,47.42
2023-05-05T03:44:52.874Z,47.46
2023-05-05T03:45:52.968Z,47.58
2023-05-05T03:46:53.009Z,47.50
2023-05-05T03:47:53.092Z,47.61
2023-05-05T03:48:53.110Z,47.58
2023-05-05T03:49:53.194Z,47.47
2023-05-05T03:50:53.242Z,47.73
2023-05-05T03:51:53.299Z,47.74
2023-05-05T03:52:53.361Z,47.53
2023-05-05T03:53:53.408Z,47.41
2023-05-05T03:54:53.428Z,47.56
2023-05-05T03:55:53.511Z,47.80
2023-05-05T03:56:53.539Z,47.90
2023-05-05T03:57:53.592Z,47.72
2023-05-05T03:58:53.604Z,47.73
2023-05-05T03:59:53.595Z,47.77
2023-05-05T04:00:53.592Z,47.89
2023-05-05T04:01:53.573Z,47.95
2023-05-05T04:02:53.658Z,47.86
2023-05-05T04:03:53.673Z,47.88
2023-05-05T04:04:53.582Z,47.83
2023-05-05T04:05:53.587Z,47.74
2023-05-05T04:06:53.603Z,47.74
2023-05-05T04:07:53.611Z,47.64
2023-05-05T04:08:53.640Z,47.70
2023-05-05T04:09:53.622Z,47.83
2023-05-05T04:10:53.650Z,47.74
2023-05-05T04:11:53.655Z,47.65
2023-05-05T04:12:53.699Z,47.47
2023-05-05T04:13:53.678Z,47.40
2023-05-05T04:14:53.686Z,47.32
2023-05-05T04:15:53.742Z,47.21
2023-05-05T04:16:53.685Z,47.15
2023-05-05T04:17:53.762Z,46.87
2023-05-05T04:18:53.695Z,46.94
2023-05-05T04:19:53.712Z,46.79
2023-05-05T04:20:53.716Z,46.67
2023-05-05T04:21:53.715Z,46.48
2023-05-05T04:22:53.750Z,46.35
2023-05-05T04:23:53.764Z,46.30
2023-05-05T04:24:53.782Z,46.21
2023-05-05T04:25:53.817Z,46.18
2023-05-05T04:26:53.874Z,46.28
2023-05-05T04:27:53.913Z,46.08
2023-05-05T04:28:53.951Z,46.03
2023-05-05T04:29:54.036Z,45.94
2023-05-05T04:30:54.108Z,45.88
2023-05-05T04:31:54.093Z,46.00
2023-05-05T04:32:54.215Z,45.78
2023-05-05T04:33:54.231Z,46.08
2023-05-05T04:34:54.271Z,46.39
2023-05-05T04:35:54.348Z,46.48
2023-05-05T04:36:54.437Z,46.79
2023-05-05T04:37:54.506Z,47.00
2023-05-05T04:38:54.580Z,47.18
2023-05-05T04:39:54.478Z,47.44
2023-05-05T04:40:54.510Z,47.56
2023-05-05T04:41:54.495Z,47.36
2023-05-05T04:42:54.527Z,47.02
2023-05-05T04:43:54.562Z,46.84
2023-05-05T04:44:54.621Z,46.98
2023-05-05T04:45:54.706Z,47.26
2023-05-05T04:46:54.795Z,46.90
2023-05-05T04:47:54.844Z,46.69
2023-05-05T04:48:54.844Z,46.42
2023-05-05T04:49:54.897Z,46.50
2023-05-05T04:50:54.960Z,46.48
2023-05-05T04:51:55.018Z,46.59
2023-05-05T04:52:55.098Z,46.45
2023-05-05T04:53:55.309Z,46.46
2023-05-05T04:54:55.205Z,46.76
2023-05-05T04:55:55.256Z,47.16
2023-05-05T04:56:55.322Z,47.18
2023-05-05T04:57:55.370Z,47.04
2023-05-05T04:58:55.429Z,47.09
2023-05-05T04:59:55.477Z,47.02
2023-05-05T05:00:55.519Z,47.13
2023-05-05T05:01:55.631Z,46.80
2023-05-05T05:02:55.727Z,46.86
2023-05-05T05:03:55.732Z,46.84
2023-05-05T05:04:55.707Z,46.85
2023-05-05T05:05:55.728Z,46.58
2023-05-05T05:06:57.559Z,46.75
2023-05-05T05:07:55.755Z,46.78
2023-05-05T05:08:55.745Z,46.60
2023-05-05T05:09:55.746Z,46.24
2023-05-05T05:10:55.728Z,46.26
2023-05-05T05:11:55.715Z,46.16
2023-05-05T05:12:55.818Z,46.06
2023-05-05T05:13:55.717Z,46.08
2023-05-05T05:14:55.711Z,46.37
2023-05-05T05:15:55.704Z,46.48
2023-05-05T05:16:55.756Z,47.05
2023-05-05T05:17:55.726Z,46.96
2023-05-05T05:18:55.689Z,46.50
2023-05-05T05:19:55.654Z,46.23
2023-05-05T05:20:55.689Z,45.98
2023-05-05T05:21:55.653Z,46.23
2023-05-05T05:22:55.646Z,46.13
2023-05-05T05:23:55.661Z,46.23
2023-05-05T05:24:55.651Z,45.58
2023-05-05T05:25:55.655Z,45.28
2023-05-05T05:26:55.960Z,44.71
2023-05-05T05:28:08.738Z,44.81
2023-05-05T05:28:56.616Z,44.86
2023-05-05T05:29:55.616Z,45.34
2023-05-05T05:30:55.595Z,45.49
2023-05-05T05:31:55.658Z,44.99
2023-05-05T05:32:55.623Z,44.84
2023-05-05T05:33:55.618Z,45.07
2023-05-05T05:34:55.574Z,45.32
2023-05-05T05:35:55.559Z,45.52
2023-05-05T05:36:55.533Z,45.50
2023-05-05T05:37:55.535Z,45.55
2023-05-05T05:38:55.529Z,45.44
2023-05-05T05:39:55.548Z,45.35
2023-05-05T05:40:55.515Z,45.32
2023-05-05T05:41:55.537Z,45.50
2023-05-05T05:42:55.517Z,45.55
2023-05-05T05:43:55.499Z,45.39
2023-05-05T05:44:55.489Z,45.09
2023-05-05T05:45:55.508Z,45.17
2023-05-05T05:46:55.484Z,45.36
2023-05-05T05:47:55.512Z,45.38
2023-05-05T05:48:55.467Z,45.81
2023-05-05T05:49:55.459Z,45.58
2023-05-05T05:50:55.521Z,45.79
2023-05-05T05:51:55.492Z,45.78
2023-05-05T05:52:55.465Z,45.42
2023-05-05T05:53:58.212Z,46.00
2023-05-05T05:54:55.486Z,45.65
2023-05-05T05:55:55.599Z,45.75
2023-05-05T05:56:55.447Z,46.77
2023-05-05T05:57:55.551Z,47.04
2023-05-05T05:58:55.423Z,47.45
2023-05-05T05:59:55.435Z,46.47
2023-05-05T06:00:55.405Z,46.43
2023-05-05T06:01:55.390Z,46.57
2023-05-05T06:02:55.617Z,46.77
2023-05-05T06:03:55.548Z,46.73
2023-05-05T06:04:55.363Z,46.69
2023-05-05T06:05:55.402Z,46.56
2023-05-05T06:06:55.362Z,46.22
2023-05-05T06:07:55.394Z,46.32
2023-05-05T06:08:55.343Z,46.82
2023-05-05T06:09:55.361Z,46.94
2023-05-05T06:10:55.388Z,46.99
2023-05-05T06:11:55.333Z,46.78
2023-05-05T06:12:55.370Z,46.03
2023-05-05T06:13:55.373Z,46.48
2023-05-05T06:14:55.357Z,46.95
2023-05-05T06:15:55.336Z,46.77
2023-05-05T06:16:55.291Z,45.27
2023-05-05T06:17:55.359Z,44.98
2023-05-05T06:18:55.487Z,45.21
2023-05-05T06:19:55.268Z,45.39
2023-05-05T06:20:55.263Z,44.47
2023-05-05T06:21:55.280Z,44.28
2023-05-05T06:22:55.262Z,44.18
2023-05-05T06:23:55.278Z,44.57
2023-05-05T06:24:55.231Z,44.78
2023-05-05T06:25:55.241Z,44.48
2023-05-05T06:26:55.225Z,43.71
2023-05-05T06:27:55.360Z,43.79
2023-05-05T06:28:55.259Z,44.06
2023-05-05T06:29:55.290Z,43.94
2023-05-05T06:30:55.196Z,43.81
2023-05-05T06:31:55.466Z,43.24
2023-05-05T06:32:55.253Z,43.58
2023-05-05T06:33:55.287Z,43.13
2023-05-05T06:34:55.226Z,42.25
2023-05-05T06:35:55.196Z,42.67
2023-05-05T06:36:55.194Z,42.27
2023-05-05T06:37:55.287Z,41.92
2023-05-05T06:38:55.124Z,41.88
2023-05-05T06:39:55.133Z,42.20
2023-05-05T06:40:55.118Z,42.27
2023-05-05T06:41:55.103Z,42.31
2023-05-05T06:42:55.104Z,42.59
2023-05-05T06:43:55.459Z,42.68
2023-05-05T06:44:55.098Z,43.57
2023-05-05T06:45:55.099Z,42.22
2023-05-05T06:46:55.559Z,42.56
2023-05-05T06:47:55.133Z,42.71
2023-05-05T06:48:55.072Z,41.74
2023-05-05T06:49:55.073Z,40.85
2023-05-05T06:50:55.133Z,41.78
2023-05-05T06:51:55.187Z,41.65
2023-05-05T06:52:55.278Z,41.66
2023-05-05T06:53:55.480Z,41.35
2023-05-05T06:54:55.377Z,41.21
2023-05-05T06:55:55.438Z,41.49
2023-05-05T06:56:56.556Z,41.62
2023-05-05T06:57:55.539Z,41.51
2023-05-05T06:58:55.631Z,41.60
2023-05-05T06:59:55.671Z,41.71
2023-05-05T07:00:55.778Z,41.59
2023-05-05T07:01:56.596Z,40.89
2023-05-05T07:02:55.871Z,40.80
2023-05-05T07:03:55.895Z,40.89
2023-05-05T07:04:55.925Z,40.53
2023-05-05T07:05:55.966Z,40.10
2023-05-05T07:06:56.017Z,40.34
2023-05-05T07:07:56.073Z,40.64
2023-05-05T07:08:56.481Z,40.61
2023-05-05T07:09:56.145Z,40.52
2023-05-05T07:10:56.214Z,40.08
2023-05-05T07:11:56.555Z,39.73
2023-05-05T07:12:56.240Z,40.29
2023-05-05T07:13:56.294Z,40.21
2023-05-05T07:14:56.274Z,40.31
2023-05-05T07:15:56.325Z,40.42
2023-05-05T07:16:56.346Z,40.79
2023-05-05T07:17:56.476Z,39.90
2023-05-05T07:18:56.334Z,40.59
2023-05-05T07:19:56.395Z,40.58
2023-05-05T07:20:56.358Z,40.87
2023-05-05T07:21:56.376Z,41.20
2023-05-05T07:22:56.372Z,39.66
2023-05-05T07:23:56.375Z,39.42
2023-05-05T07:24:56.387Z,39.45
2023-05-05T07:25:56.436Z,39.75
2023-05-05T07:26:56.488Z,39.32
2023-05-05T07:27:56.574Z,38.90
2023-05-05T07:28:56.587Z,38.51
2023-05-05T07:29:56.624Z,38.98
2023-05-05T07:30:56.647Z,38.83
2023-05-05T07:31:56.799Z,38.63
2023-05-05T07:32:56.908Z,38.73
2023-05-05T07:33:56.866Z,39.35
2023-05-05T07:34:56.882Z,37.88
2023-05-05T07:35:56.935Z,37.65
2023-05-05T07:36:56.995Z,38.04
2023-05-05T07:37:56.996Z,38.44
2023-05-05T07:38:57.064Z,38.06
2023-05-05T07:39:57.133Z,38.29
2023-05-05T07:40:57.460Z,38.50
2023-05-05T07:41:57.285Z,38.25
2023-05-05T07:42:57.214Z,37.82
2023-05-05T07:43:57.495Z,38.29
2023-05-05T07:44:57.317Z,37.90
2023-05-05T07:45:57.315Z,38.40
2023-05-05T07:46:57.277Z,38.33
2023-05-05T07:47:57.424Z,38.19
2023-05-05T07:48:57.499Z,38.10
2023-05-05T07:49:57.376Z,38.15
2023-05-05T07:50:57.331Z,37.69
2023-05-05T07:51:57.360Z,37.73
2023-05-05T07:53:10.142Z,38.47
2023-05-05T07:53:58.483Z,38.22
2023-05-05T07:54:57.333Z,37.82
2023-05-05T07:55:57.335Z,38.25
2023-05-05T07:56:57.344Z,38.32
2023-05-05T07:57:57.319Z,38.64
2023-05-05T07:58:57.496Z,38.89
2023-05-05T07:59:57.329Z,37.78
2023-05-05T08:00:57.335Z,37.82
2023-05-05T08:01:57.485Z,37.11
2023-05-05T08:02:57.323Z,37.54
2023-05-05T08:03:57.337Z,37.06
2023-05-05T08:04:57.299Z,37.10
2023-05-05T08:05:57.376Z,37.39
2023-05-05T08:06:57.266Z,38.02
2023-05-05T08:07:57.260Z,38.40
2023-05-05T08:08:57.272Z,38.15
2023-05-05T08:09:57.326Z,38.20
2023-05-05T08:10:57.366Z,38.44
2023-05-05T08:11:57.459Z,39.03
2023-05-05T08:12:57.522Z,38.36
2023-05-05T08:13:57.530Z,38.07
2023-05-05T08:14:57.593Z,38.05
2023-05-05T08:15:57.696Z,37.95
2023-05-05T08:16:57.734Z,37.35
2023-05-05T08:17:57.835Z,37.22
2023-05-05T08:18:58.004Z,36.92
2023-05-05T08:19:57.902Z,36.90
2023-05-05T08:20:58.006Z,36.72
2023-05-05T08:22:00.559Z,36.74
2023-05-05T08:22:59.200Z,36.69
2023-05-05T08:23:58.563Z,36.65
2023-05-05T08:24:58.034Z,36.73
2023-05-05T08:25:58.147Z,36.64
2023-05-05T08:26:57.998Z,36.60
2023-05-05T08:27:57.974Z,36.90
2023-05-05T08:28:58.022Z,37.80
2023-05-05T08:29:58.011Z,38.18
2023-05-05T08:30:57.952Z,38.01
2023-05-05T08:31:58.029Z,37.96
2023-05-05T08:32:58.023Z,37.87
2023-05-05T08:33:57.940Z,37.21
2023-05-05T08:34:57.972Z,37.65
2023-05-05T08:35:57.913Z,37.70
2023-05-05T08:36:57.889Z,37.19
2023-05-05T08:37:59.221Z,37.38
2023-05-05T08:38:57.900Z,36.85
2023-05-05T08:39:57.912Z,36.90
2023-05-05T08:40:57.903Z,36.38
2023-05-05T08:41:57.878Z,35.75
2023-05-05T08:42:57.892Z,35.91
2023-05-05T08:43:57.866Z,36.10
2023-05-05T08:44:59.081Z,36.31
2023-05-05T08:45:57.879Z,36.36
2023-05-05T08:46:57.992Z,36.27
2023-05-05T08:47:58.034Z,36.38
2023-05-05T08:48:57.857Z,37.17
2023-05-05T08:49:57.877Z,37.15
2023-05-05T08:50:59.800Z,37.27
2023-05-05T08:51:58.073Z,36.81
2023-05-05T08:52:58.210Z,36.03
2023-05-05T08:53:58.556Z,36.59
2023-05-05T08:54:58.186Z,36.73
2023-05-05T08:55:58.200Z,36.72
2023-05-05T08:56:58.231Z,36.79
2023-05-05T08:57:58.347Z,36.50
2023-05-05T08:58:58.279Z,36.45
2023-05-05T08:59:58.332Z,36.72
2023-05-05T09:00:58.351Z,37.84
2023-05-05T09:01:58.391Z,37.43
2023-05-05T09:02:58.613Z,37.29
2023-05-05T09:03:58.491Z,37.68
2023-05-05T09:04:58.535Z,37.03
2023-05-05T09:05:58.594Z,37.11
2023-05-05T09:06:58.644Z,37.08
2023-05-05T09:07:58.753Z,36.55
2023-05-05T09:08:59.803Z,36.41
2023-05-05T09:09:58.884Z,36.33
2023-05-05T09:10:58.902Z,36.46
2023-05-05T09:11:59.004Z,36.46
2023-05-05T09:12:59.029Z,36.98
2023-05-05T09:13:59.079Z,37.80
2023-05-05T09:14:59.511Z,38.13
2023-05-05T09:15:59.166Z,37.61
2023-05-05T09:16:59.222Z,37.40
2023-05-05T09:17:59.192Z,37.14
2023-05-05T09:18:59.230Z,37.40
2023-05-05T09:19:59.266Z,37.45
2023-05-05T09:20:59.658Z,37.61
2023-05-05T09:21:59.381Z,37.12
2023-05-05T09:22:59.416Z,37.12
2023-05-05T09:24:07.423Z,37.23
2023-05-05T09:25:00.440Z,38.95
2023-05-05T09:25:59.538Z,39.94
2023-05-05T09:26:59.408Z,39.24
2023-05-05T09:27:59.402Z,38.49
2023-05-05T09:28:59.432Z,36.82
2023-05-05T09:29:59.378Z,36.26
2023-05-05T09:30:59.446Z,36.43
2023-05-05T09:31:59.373Z,36.43
2023-05-05T09:32:59.615Z,36.30
2023-05-05T09:33:59.357Z,35.76
2023-05-05T09:34:59.377Z,35.79
2023-05-05T09:35:59.359Z,35.66
2023-05-05T09:36:59.343Z,36.10
2023-05-05T09:37:59.528Z,37.18
2023-05-05T09:38:59.319Z,37.85
2023-05-05T09:39:59.324Z,37.25
2023-05-05T09:40:59.329Z,36.92
2023-05-05T09:41:59.463Z,36.89
2023-05-05T09:42:59.293Z,38.17
2023-05-05T09:43:59.304Z,38.01
2023-05-05T09:44:59.973Z,37.24
2023-05-05T09:45:59.301Z,36.97
2023-05-05T09:46:59.298Z,37.28
2023-05-05T09:48:00.702Z,37.48
2023-05-05T09:48:59.398Z,36.65
2023-05-05T09:49:59.456Z,36.57
2023-05-05T09:50:59.496Z,36.53
2023-05-05T09:51:59.538Z,36.85
2023-05-05T09:52:59.596Z,35.74
2023-05-05T09:53:59.630Z,34.56
2023-05-05T09:54:59.672Z,34.55
2023-05-05T09:55:59.734Z,34.59
2023-05-05T09:56:59.773Z,35.64
2023-05-05T09:57:59.851Z,35.37
2023-05-05T09:58:59.827Z,35.26
2023-05-05T09:59:59.888Z,35.45
2023-05-05T10:00:59.910Z,34.70
2023-05-05T10:02:00.034Z,34.10
2023-05-05T10:03:00.032Z,33.99
2023-05-05T10:03:59.998Z,34.88
2023-05-05T10:05:02.144Z,34.05
2023-05-05T10:06:00.040Z,31.84
2023-05-05T10:07:00.065Z,31.00
2023-05-05T10:08:00.078Z,33.10
2023-05-05T10:09:00.125Z,33.69
2023-05-05T10:10:00.201Z,34.24
2023-05-05T10:11:00.139Z,34.22
2023-05-05T10:12:00.182Z,31.82
2023-05-05T10:13:00.200Z,32.42
2023-05-05T10:14:00.207Z,33.45
2023-05-05T10:15:00.149Z,33.58
2023-05-05T10:16:00.176Z,32.96
2023-05-05T10:17:00.144Z,32.76
2023-05-05T10:18:07.512Z,31.39
2023-05-05T10:19:01.117Z,30.82
2023-05-05T10:20:00.229Z,31.24
2023-05-05T10:21:00.162Z,32.34
2023-05-05T10:22:00.131Z,33.00
2023-05-05T10:23:00.129Z,32.92
2023-05-05T10:24:00.126Z,33.10
2023-05-05T10:25:00.113Z,33.99
2023-05-05T10:26:00.066Z,33.61
2023-05-05T10:27:00.057Z,33.97
2023-05-05T10:28:00.106Z,33.77
2023-05-05T10:29:00.180Z,34.16
2023-05-05T10:30:00.649Z,34.48
2023-05-05T10:31:00.262Z,34.79
2023-05-05T10:32:00.311Z,33.50
2023-05-05T10:34:00.602Z,33.46
2023-05-05T10:35:00.419Z,33.84
2023-05-05T10:36:00.469Z,33.82
2023-05-05T10:37:00.513Z,35.17
2023-05-05T10:38:00.531Z,33.39
2023-05-05T10:39:00.609Z,32.05
2023-05-05T10:40:00.602Z,32.55
2023-05-05T10:41:00.621Z,32.08
2023-05-05T10:42:00.653Z,32.53
2023-05-05T10:43:00.685Z,34.01
2023-05-05T10:44:03.626Z,34.76
2023-05-05T10:45:00.829Z,33.35
2023-05-05T10:46:01.109Z,33.40
2023-05-05T10:47:00.693Z,33.42
2023-05-05T10:48:00.792Z,35.08
2023-05-05T10:49:00.729Z,35.21
2023-05-05T10:50:00.690Z,34.65
2023-05-05T10:51:00.681Z,34.35
2023-05-05T10:52:00.678Z,33.62
2023-05-05T10:53:00.698Z,33.03
2023-05-05T10:54:00.707Z,32.50
2023-05-05T10:55:00.651Z,32.10
2023-05-05T10:56:00.653Z,32.64
2023-05-05T10:57:00.649Z,33.22
2023-05-05T10:58:00.635Z,32.96
2023-05-05T10:59:01.035Z,32.70
2023-05-05T11:00:01.062Z,32.91
2023-05-05T11:01:00.632Z,33.42
2023-05-05T11:02:00.621Z,33.79
2023-05-05T11:03:00.712Z,34.08
2023-05-05T11:04:00.628Z,33.82
2023-05-05T11:05:00.585Z,32.19
2023-05-05T11:06:00.555Z,33.20
2023-05-05T11:07:00.571Z,33.40
2023-05-05T11:08:00.545Z,32.27
2023-05-05T11:09:00.548Z,32.15
2023-05-05T11:10:00.573Z,32.29
2023-05-05T11:11:00.520Z,32.15
2023-05-05T11:12:00.514Z,32.22
2023-05-05T11:13:00.558Z,33.69
2023-05-05T11:14:00.521Z,32.76
2023-05-05T11:15:00.519Z,32.86
2023-05-05T11:16:00.510Z,32.39
2023-05-05T11:17:00.502Z,32.12
2023-05-05T11:18:01.929Z,31.65
2023-05-05T11:19:00.456Z,32.91
2023-05-05T11:20:00.566Z,32.10
2023-05-05T11:21:00.442Z,31.41
2023-05-05T11:22:00.437Z,31.75
2023-05-05T11:23:00.457Z,31.34
2023-05-05T11:24:00.436Z,30.90
2023-05-05T11:25:00.413Z,31.06
2023-05-05T11:26:00.437Z,31.31
2023-05-05T11:27:00.431Z,30.77
2023-05-05T11:28:00.440Z,30.71
2023-05-05T11:29:00.411Z,30.75
2023-05-05T11:30:00.400Z,30.64
2023-05-05T11:31:00.426Z,31.72
2023-05-05T11:32:00.388Z,31.03
2023-05-05T11:33:00.410Z,30.88
2023-05-05T11:34:00.423Z,31.19
2023-05-05T11:35:00.354Z,32.27
2023-05-05T11:36:00.388Z,32.08
2023-05-05T11:37:00.338Z,30.90
2023-05-05T11:38:00.346Z,31.75
2023-05-05T11:39:00.341Z,31.42
2023-05-05T11:40:00.346Z,29.72
2023-05-05T11:41:00.318Z,31.05
2023-05-05T11:42:01.026Z,31.50
2023-05-05T11:43:00.539Z,31.89
2023-05-05T11:44:00.562Z,29.63
2023-05-05T11:45:00.616Z,31.29
2023-05-05T11:46:00.648Z,30.04
2023-05-05T11:47:00.640Z,30.08
2023-05-05T11:48:00.716Z,29.90
2023-05-05T11:49:00.668Z,29.67
2023-05-05T11:50:00.732Z,29.63
2023-05-05T11:51:00.678Z,30.65
2023-05-05T11:52:00.742Z,29.83
2023-05-05T11:53:00.726Z,29.63
2023-05-05T11:54:00.746Z,29.20
2023-05-05T11:55:00.745Z,29.30
2023-05-05T11:56:00.738Z,29.59
2023-05-05T11:57:00.744Z,30.58
2023-05-05T11:58:00.760Z,29.95
2023-05-05T11:59:00.831Z,30.66
2023-05-05T12:00:00.879Z,31.49
2023-05-05T12:01:00.870Z,30.78
2023-05-05T12:02:00.886Z,29.03
2023-05-05T12:03:01.012Z,29.28
2023-05-05T12:04:01.315Z,29.15
2023-05-05T12:05:01.086Z,29.18
2023-05-05T12:06:01.210Z,29.28
2023-05-05T12:07:01.188Z,29.14
2023-05-05T12:08:01.226Z,31.73
2023-05-05T12:09:01.281Z,30.98
2023-05-05T12:10:01.384Z,32.22
2023-05-05T12:11:01.330Z,30.62
2023-05-05T12:12:01.462Z,30.69
2023-05-05T12:13:01.428Z,30.82
2023-05-05T12:14:01.412Z,30.31
2023-05-05T12:15:01.372Z,30.55
2023-05-05T12:16:01.442Z,31.29
2023-05-05T12:17:01.423Z,28.63
2023-05-05T12:18:03.046Z,28.18
2023-05-05T12:19:01.524Z,29.24
2023-05-05T12:20:01.517Z,28.39
2023-05-05T12:21:01.522Z,28.53
2023-05-05T12:22:01.547Z,27.68
2023-05-05T12:23:01.535Z,28.02
2023-05-05T12:24:01.541Z,27.60
2023-05-05T12:25:01.561Z,28.11
2023-05-05T12:26:01.574Z,28.61
2023-05-05T12:27:01.576Z,29.55
2023-05-05T12:28:01.597Z,28.95
2023-05-05T12:29:01.644Z,27.24
2023-05-05T12:30:01.598Z,26.90
2023-05-05T12:31:01.640Z,27.96
2023-05-05T12:32:01.727Z,29.15
2023-05-05T12:33:01.655Z,28.45
2023-05-05T12:34:01.653Z,29.78
2023-05-05T12:35:01.717Z,29.60
2023-05-05T12:36:01.769Z,29.45
2023-05-05T12:37:01.808Z,29.56
2023-05-05T12:38:01.927Z,28.86
2023-05-05T12:39:01.924Z,29.53
2023-05-05T12:40:01.976Z,29.53
2023-05-05T12:41:02.047Z,28.72
2023-05-05T12:42:02.072Z,29.68
2023-05-05T12:43:02.154Z,27.98
2023-05-05T12:44:02.207Z,27.76
2023-05-05T12:45:02.264Z,29.37
2023-05-05T12:46:02.384Z,25.20
2023-05-05T12:47:02.364Z,25.71
2023-05-05T12:48:02.426Z,26.44
2023-05-05T12:49:02.459Z,25.64
2023-05-05T12:50:02.527Z,27.18
2023-05-05T12:51:02.575Z,27.55
2023-05-05T12:52:02.627Z,26.93
2023-05-05T12:53:02.693Z,27.89
2023-05-05T12:54:02.804Z,28.21